Amherst, New Hampshire
Current Conditions -  °F | °C
As of 8:51 PM on Saturday 25 Oct 2014 (Local Time) from KASH Reporting Station
Clear Clear  
Wind Chill: 55°   Ceiling: Unl
Heat Index: 55°   Visibility: 10mi
Dew Point: 45°   Wind: 0mph
Humidity: 69%   Direction: NA
Pressure: 29.55"   Gusts: NA
Location:  42.86°N, 71.63°W
Report Text: KASH 260051Z AUTO 00000KT 10SM CLR 13/07 A2955 RMK AO2 T01270072 SLP253 $
Loading
Personal Weather Stations






























Interactive Weather Map
Tropical Storm Tracking
New forecast layout! Learn more

10-Day Weather Forecast

Advertisements
Track Severe Weather on mobile